createdAt,value
2019-02-17T00:02:12.387Z,35.23
2019-02-17T00:04:42.458Z,32.40
2019-02-17T00:07:12.840Z,32.70
2019-02-17T00:09:42.966Z,29.20
2019-02-17T00:12:12.438Z,27.07
2019-02-17T00:14:42.438Z,25.70
2019-02-17T00:17:12.341Z,25.70
2019-02-17T00:19:42.418Z,25.23
2019-02-17T00:22:12.639Z,23.83
2019-02-17T00:24:42.678Z,23.67
2019-02-17T00:27:12.798Z,22.60
2019-02-17T00:29:42.779Z,22.30
2019-02-17T00:32:12.578Z,22.80
2019-02-17T00:34:44.239Z,23.00
2019-02-17T00:37:14.366Z,24.03
2019-02-17T00:39:44.981Z,23.50
2019-02-17T00:42:15.099Z,22.93
2019-02-17T00:44:45.318Z,22.97
2019-02-17T00:47:15.546Z,23.53
2019-02-17T00:49:45.487Z,22.70
2019-02-17T00:52:15.582Z,23.50
2019-02-17T00:54:46.158Z,24.83
2019-02-17T00:57:17.340Z,24.83
2019-02-17T00:59:47.378Z,24.80
2019-02-17T01:02:17.382Z,25.37
2019-02-17T01:04:47.602Z,26.97
2019-02-17T01:07:17.870Z,27.10
2019-02-17T01:09:47.942Z,27.40
2019-02-17T01:12:17.842Z,25.80
2019-02-17T01:14:48.282Z,26.50
2019-02-17T01:17:18.322Z,27.43
2019-02-17T01:19:48.530Z,26.47
2019-02-17T01:22:18.721Z,28.53
2019-02-17T01:24:49.701Z,27.53
2019-02-17T01:27:19.709Z,25.80
2019-02-17T01:29:49.783Z,25.33
2019-02-17T01:32:21.241Z,26.63
2019-02-17T01:34:51.403Z,25.70
2019-02-17T01:37:21.500Z,24.83
2019-02-17T01:39:54.041Z,26.67
2019-02-17T01:42:25.200Z,24.67
2019-02-17T01:44:55.160Z,25.80
2019-02-17T01:47:27.008Z,26.70
2019-02-17T01:49:57.221Z,25.03
2019-02-17T01:52:27.456Z,27.53
2019-02-17T01:54:57.748Z,27.03
2019-02-17T01:57:28.000Z,27.10
2019-02-17T01:59:58.200Z,27.67
2019-02-17T02:02:28.502Z,26.73
2019-02-17T02:04:58.728Z,25.13
2019-02-17T02:07:29.080Z,27.83
2019-02-17T02:09:59.319Z,27.20
2019-02-17T02:12:29.555Z,28.47
2019-02-17T02:15:01.601Z,26.30
2019-02-17T02:17:31.520Z,26.00
2019-02-17T02:20:01.662Z,27.33
2019-02-17T02:22:31.819Z,28.07
2019-02-17T02:25:04.680Z,27.37
2019-02-17T02:27:34.759Z,28.27
2019-02-17T02:30:09.025Z,27.00
2019-02-17T02:32:39.338Z,28.57
2019-02-17T02:35:09.688Z,28.40
2019-02-17T02:37:39.698Z,26.40
2019-02-17T02:40:09.910Z,28.07
2019-02-17T02:42:39.926Z,25.63
2019-02-17T02:45:11.318Z,26.50
2019-02-17T02:47:41.179Z,28.13
2019-02-17T02:50:12.125Z,27.33
2019-02-17T02:52:41.827Z,26.87
2019-02-17T02:55:11.959Z,26.83
2019-02-17T02:57:42.139Z,28.00
2019-02-17T03:00:13.238Z,26.57
2019-02-17T03:02:43.719Z,28.67
2019-02-17T03:05:13.358Z,27.73
2019-02-17T03:07:43.458Z,26.50
2019-02-17T03:10:13.317Z,27.40
2019-02-17T03:12:43.278Z,27.47
2019-02-17T03:15:13.302Z,26.37
2019-02-17T03:17:44.722Z,27.80
2019-02-17T03:20:14.711Z,27.63
2019-02-17T03:22:44.982Z,29.03
2019-02-17T03:25:14.964Z,27.20
2019-02-17T03:27:45.133Z,26.00
2019-02-17T03:30:15.371Z,28.50
2019-02-17T03:32:45.538Z,27.50
2019-02-17T03:35:15.781Z,28.50
2019-02-17T03:37:45.800Z,27.20
2019-02-17T03:40:16.108Z,28.50
2019-02-17T03:42:46.363Z,28.87
2019-02-17T03:45:18.328Z,28.67
2019-02-17T03:47:48.452Z,27.93
2019-02-17T03:50:18.564Z,27.30
2019-02-17T03:52:48.786Z,28.63
2019-02-17T03:55:18.909Z,27.77
2019-02-17T03:57:48.803Z,28.77
2019-02-17T04:00:18.892Z,27.27
2019-02-17T04:02:48.973Z,27.77
2019-02-17T04:05:19.186Z,29.60
2019-02-17T04:07:49.248Z,28.83
2019-02-17T04:10:19.630Z,29.70
2019-02-17T04:12:49.876Z,30.43
2019-02-17T04:15:19.657Z,28.33
2019-02-17T04:17:50.832Z,31.77
2019-02-17T04:20:20.822Z,29.27
2019-02-17T04:22:50.934Z,29.63
2019-02-17T04:25:20.991Z,30.30
2019-02-17T04:27:52.278Z,29.53
2019-02-17T04:30:29.389Z,28.87
2019-02-17T04:32:54.151Z,29.53
2019-02-17T04:35:24.236Z,30.23
2019-02-17T04:37:54.291Z,30.97
2019-02-17T04:40:24.465Z,29.63
2019-02-17T04:42:54.568Z,29.53
2019-02-17T04:45:24.959Z,27.27
2019-02-17T04:47:54.952Z,29.43
2019-02-17T04:50:24.979Z,29.43
2019-02-17T04:52:55.189Z,29.77
2019-02-17T04:55:25.449Z,31.27
2019-02-17T04:57:55.587Z,29.83
2019-02-17T05:00:25.586Z,30.13
2019-02-17T05:02:55.730Z,29.77
2019-02-17T05:05:25.954Z,29.77
2019-02-17T05:07:56.283Z,29.97
2019-02-17T05:10:26.445Z,31.20
2019-02-17T05:12:56.625Z,31.83
2019-02-17T05:15:26.866Z,32.03
2019-02-17T05:17:57.121Z,32.57
2019-02-17T05:20:27.481Z,34.07
2019-02-17T05:22:57.705Z,32.03
2019-02-17T05:25:27.760Z,31.07
2019-02-17T05:27:58.916Z,32.63
2019-02-17T05:30:29.155Z,31.80
2019-02-17T05:32:59.616Z,31.80
2019-02-17T05:35:31.136Z,32.97
2019-02-17T05:38:01.141Z,31.40
2019-02-17T05:40:31.193Z,31.63
2019-02-17T05:43:01.295Z,30.50
2019-02-17T05:45:31.586Z,30.67
2019-02-17T05:48:01.898Z,33.87
2019-02-17T05:50:32.172Z,30.17
2019-02-17T05:53:02.274Z,30.33
2019-02-17T05:55:34.055Z,30.90
2019-02-17T05:58:04.279Z,32.77
2019-02-17T06:00:35.171Z,32.77
2019-02-17T06:03:05.221Z,29.60
2019-02-17T06:05:35.775Z,31.30
2019-02-17T06:08:05.945Z,33.30
2019-02-17T06:10:36.539Z,31.50
2019-02-17T06:13:06.738Z,31.60
2019-02-17T06:15:36.590Z,32.10
2019-02-17T06:18:07.580Z,30.73
2019-02-17T06:20:37.684Z,33.03
2019-02-17T06:23:07.726Z,32.23
2019-02-17T06:25:37.771Z,33.43
2019-02-17T06:28:09.047Z,32.47
2019-02-17T06:30:39.104Z,32.10
2019-02-17T06:33:09.325Z,33.13
2019-02-17T06:35:39.482Z,30.77
2019-02-17T06:38:09.528Z,31.07
2019-02-17T06:40:39.764Z,31.20
2019-02-17T06:43:09.851Z,31.83
2019-02-17T06:45:40.101Z,30.17
2019-02-17T06:48:10.241Z,29.70
2019-02-17T06:50:40.154Z,32.40
2019-02-17T06:53:10.447Z,30.80
2019-02-17T06:55:42.152Z,30.97
2019-02-17T06:58:12.207Z,32.17
2019-02-17T07:00:44.079Z,32.83
2019-02-17T07:03:14.503Z,30.03
2019-02-17T07:05:46.381Z,31.53
2019-02-17T07:08:16.908Z,29.73
2019-02-17T07:10:47.234Z,30.97
2019-02-17T07:13:17.363Z,31.17
2019-02-17T07:15:47.608Z,30.53
2019-02-17T07:18:17.672Z,28.53
2019-02-17T07:20:47.912Z,31.83
2019-02-17T07:23:18.106Z,31.53
2019-02-17T07:25:48.185Z,31.57
2019-02-17T07:28:19.277Z,31.83
2019-02-17T07:30:49.733Z,29.30
2019-02-17T07:33:20.028Z,30.40
2019-02-17T07:35:49.820Z,29.40
2019-02-17T07:38:20.056Z,27.83
2019-02-17T07:40:50.188Z,30.30
2019-02-17T07:43:20.521Z,28.17
2019-02-17T07:45:50.845Z,27.20
2019-02-17T07:48:21.049Z,27.37
2019-02-17T07:50:50.927Z,29.13
2019-02-17T07:53:20.964Z,28.17
2019-02-17T07:55:50.999Z,27.83
2019-02-17T07:58:21.125Z,28.13
2019-02-17T08:00:51.126Z,28.23
2019-02-17T08:03:21.244Z,28.30
2019-02-17T08:05:51.395Z,28.97
2019-02-17T08:08:23.708Z,28.47
2019-02-17T08:11:03.504Z,28.00
2019-02-17T08:13:26.024Z,27.23
2019-02-17T08:15:56.701Z,27.40
2019-02-17T08:18:26.936Z,29.43
2019-02-17T08:20:56.967Z,26.60
2019-02-17T08:23:26.928Z,28.60
2019-02-17T08:25:57.261Z,29.90
2019-02-17T08:28:29.402Z,29.03
2019-02-17T08:30:59.766Z,27.90
2019-02-17T08:33:29.870Z,27.53
2019-02-17T08:36:00.055Z,31.03
2019-02-17T08:38:30.628Z,29.50
2019-02-17T08:41:01.102Z,28.17
2019-02-17T08:43:31.047Z,30.03
2019-02-17T08:46:01.291Z,28.93
2019-02-17T08:48:31.561Z,29.17
2019-02-17T08:51:01.963Z,28.90
2019-02-17T08:53:32.555Z,27.73
2019-02-17T08:56:02.651Z,27.17
2019-02-17T08:58:32.449Z,27.43
2019-02-17T09:01:01.886Z,30.15
2019-02-17T09:03:32.165Z,27.07
2019-02-17T09:06:02.573Z,25.30
2019-02-17T09:08:32.750Z,25.20
2019-02-17T09:11:02.834Z,24.07
2019-02-17T09:13:33.242Z,22.93
2019-02-17T09:16:03.350Z,24.10
2019-02-17T09:18:33.578Z,24.07
2019-02-17T09:21:03.606Z,23.90
2019-02-17T09:23:33.667Z,21.90
2019-02-17T09:26:03.827Z,21.93
2019-02-17T09:28:34.532Z,19.20
2019-02-17T09:31:04.560Z,18.30
2019-02-17T09:33:34.579Z,15.13
2019-02-17T09:36:04.803Z,16.20
2019-02-17T09:38:35.001Z,17.67
2019-02-17T09:41:05.193Z,15.80
2019-02-17T09:43:35.237Z,16.50
2019-02-17T09:46:05.557Z,15.50
2019-02-17T09:48:35.523Z,15.00
2019-02-17T09:51:06.108Z,16.53
2019-02-17T09:53:36.183Z,15.00
2019-02-17T09:56:06.380Z,14.73
2019-02-17T09:58:36.579Z,15.33
2019-02-17T10:01:06.964Z,13.73
2019-02-17T10:03:37.688Z,14.10
2019-02-17T10:06:07.901Z,15.33
2019-02-17T10:08:38.617Z,24.33
2019-02-17T10:11:08.814Z,17.00
2019-02-17T10:13:39.075Z,13.20
2019-02-17T10:16:08.993Z,12.80
2019-02-17T10:18:39.189Z,11.73
2019-02-17T10:21:09.235Z,12.77
2019-02-17T10:23:39.320Z,13.57
2019-02-17T10:26:10.447Z,13.93
2019-02-17T10:28:42.599Z,15.10
2019-02-17T10:31:12.410Z,16.13
2019-02-17T10:33:42.685Z,31.43
2019-02-17T10:36:12.767Z,21.33
2019-02-17T10:38:42.560Z,19.60
2019-02-17T10:41:12.582Z,21.50
2019-02-17T10:43:42.654Z,17.77
2019-02-17T10:46:16.243Z,14.80
2019-02-17T10:48:54.593Z,23.80
2019-02-17T10:51:31.351Z,39.27
2019-02-17T10:54:05.189Z,22.83
2019-02-17T10:56:42.130Z,22.40
2019-02-17T10:59:20.176Z,17.70
2019-02-17T11:01:52.489Z,17.87
2019-02-17T11:04:29.688Z,15.90
2019-02-17T11:07:04.639Z,15.47
2019-02-17T11:09:39.036Z,13.93
2019-02-17T11:12:13.180Z,15.10
2019-02-17T11:14:46.427Z,15.23
2019-02-17T11:17:19.622Z,15.50
2019-02-17T11:19:52.468Z,14.47
2019-02-17T11:22:23.664Z,14.67
2019-02-17T11:24:54.183Z,16.60
2019-02-17T11:27:25.541Z,15.10
2019-02-17T11:29:56.507Z,14.50
2019-02-17T11:32:27.099Z,15.60
2019-02-17T11:34:57.901Z,15.37
2019-02-17T11:37:27.820Z,15.23
2019-02-17T11:39:58.461Z,17.03
2019-02-17T11:42:28.779Z,16.20
2019-02-17T11:44:59.385Z,15.80
2019-02-17T11:47:29.704Z,17.23
2019-02-17T11:50:00.663Z,16.53
2019-02-17T11:52:31.220Z,14.57
2019-02-17T11:55:01.057Z,13.33
2019-02-17T11:57:30.968Z,15.30
2019-02-17T12:00:00.787Z,15.37
2019-02-17T12:02:30.826Z,16.70
2019-02-17T12:05:01.159Z,15.83
2019-02-17T12:07:31.408Z,15.77
2019-02-17T12:10:01.333Z,18.27
2019-02-17T12:12:31.777Z,15.67
2019-02-17T12:15:01.707Z,19.40
2019-02-17T12:17:32.002Z,19.77
2019-02-17T12:20:03.510Z,15.90
2019-02-17T12:22:35.303Z,17.27
2019-02-17T12:25:05.649Z,15.73
2019-02-17T12:27:38.418Z,15.97
2019-02-17T12:30:10.616Z,15.43
2019-02-17T12:32:41.300Z,17.57
2019-02-17T12:35:11.732Z,16.93
2019-02-17T12:37:41.901Z,18.27
2019-02-17T12:40:11.589Z,20.50
2019-02-17T12:42:42.735Z,18.53
2019-02-17T12:45:15.413Z,18.93
2019-02-17T12:47:44.489Z,16.37
2019-02-17T12:50:14.730Z,17.77
2019-02-17T12:52:47.735Z,18.27
2019-02-17T12:55:16.900Z,18.30
2019-02-17T12:57:47.148Z,18.47
2019-02-17T13:00:18.261Z,19.63
2019-02-17T13:02:48.258Z,20.67
2019-02-17T13:05:18.278Z,20.47
2019-02-17T13:07:48.443Z,19.53
2019-02-17T13:10:18.820Z,19.10
2019-02-17T13:12:48.858Z,18.37
2019-02-17T13:15:18.882Z,17.97
2019-02-17T13:17:49.749Z,18.33
2019-02-17T13:20:20.020Z,18.23
2019-02-17T13:22:50.465Z,16.80
2019-02-17T13:25:20.096Z,15.80
2019-02-17T13:27:50.280Z,14.47
2019-02-17T13:30:23.365Z,14.90
2019-02-17T13:32:53.657Z,14.77
2019-02-17T13:35:23.820Z,12.43
2019-02-17T13:37:54.325Z,14.60
2019-02-17T13:40:24.572Z,16.13
2019-02-17T13:42:54.870Z,16.27
2019-02-17T13:45:24.555Z,11.60
2019-02-17T13:47:54.588Z,12.07
2019-02-17T13:50:24.835Z,12.23
2019-02-17T13:52:55.166Z,12.03
2019-02-17T13:55:25.314Z,11.53
2019-02-17T13:57:55.647Z,12.27
2019-02-17T14:00:25.927Z,12.37
2019-02-17T14:02:56.062Z,11.00
2019-02-17T14:05:26.165Z,10.70
2019-02-17T14:07:56.512Z,10.33
2019-02-17T14:10:26.801Z,9.63
2019-02-17T14:12:56.791Z,9.63
2019-02-17T14:15:26.865Z,10.30
2019-02-17T14:17:56.697Z,10.37
2019-02-17T14:20:26.670Z,10.53
2019-02-17T14:22:56.980Z,10.90
2019-02-17T14:25:27.111Z,10.43
2019-02-17T14:27:57.234Z,11.17
2019-02-17T14:30:27.565Z,10.90
2019-02-17T14:32:57.783Z,10.13
2019-02-17T14:35:28.017Z,9.83
2019-02-17T14:37:58.257Z,11.70
2019-02-17T14:40:28.326Z,10.80
2019-02-17T14:42:58.787Z,11.50
2019-02-17T14:45:28.789Z,11.97
2019-02-17T14:47:59.001Z,11.27
2019-02-17T14:50:28.534Z,12.53
2019-02-17T14:52:58.538Z,12.33
2019-02-17T14:55:28.734Z,12.00
2019-02-17T14:58:05.404Z,11.83
2019-02-17T15:00:30.737Z,11.27
2019-02-17T15:03:00.776Z,10.33
2019-02-17T15:05:30.856Z,12.37
2019-02-17T15:08:00.995Z,15.93
2019-02-17T15:10:31.068Z,14.80
2019-02-17T15:13:01.011Z,13.53
2019-02-17T15:15:31.388Z,16.00
2019-02-17T15:18:01.441Z,12.97
2019-02-17T15:20:31.844Z,14.80
2019-02-17T15:23:02.094Z,13.07
2019-02-17T15:25:32.216Z,12.97
2019-02-17T15:28:02.417Z,13.30
2019-02-17T15:30:32.705Z,14.33
2019-02-17T15:33:04.443Z,13.00
2019-02-17T15:35:34.928Z,13.67
2019-02-17T15:38:05.178Z,13.87
2019-02-17T15:40:34.920Z,14.33
2019-02-17T15:43:04.847Z,13.90
2019-02-17T15:45:35.198Z,14.80
2019-02-17T15:48:05.480Z,15.47
2019-02-17T15:50:35.817Z,14.50
2019-02-17T15:53:05.945Z,15.73
2019-02-17T15:55:36.129Z,15.80
2019-02-17T15:58:06.305Z,15.40
2019-02-17T16:00:36.456Z,14.83
2019-02-17T16:03:06.416Z,14.93
2019-02-17T16:05:37.981Z,15.03
2019-02-17T16:08:08.375Z,16.13
2019-02-17T16:10:38.537Z,16.40
2019-02-17T16:13:09.060Z,16.20
2019-02-17T16:15:39.412Z,15.10
2019-02-17T16:18:09.737Z,15.67
2019-02-17T16:20:40.235Z,16.33
2019-02-17T16:23:10.406Z,17.20
2019-02-17T16:25:40.411Z,17.50
2019-02-17T16:28:10.399Z,19.33
2019-02-17T16:30:40.613Z,21.13
2019-02-17T16:33:10.723Z,21.27
2019-02-17T16:35:41.024Z,19.50
2019-02-17T16:38:12.756Z,19.90
2019-02-17T16:40:43.124Z,19.47
2019-02-17T16:43:13.261Z,18.00
2019-02-17T16:45:43.736Z,19.53
2019-02-17T16:48:13.775Z,18.50
2019-02-17T16:50:43.956Z,19.73
2019-02-17T16:53:14.604Z,20.27
2019-02-17T16:55:44.900Z,19.87
2019-02-17T16:58:16.184Z,20.40
2019-02-17T17:00:46.122Z,18.87
2019-02-17T17:03:16.392Z,20.43
2019-02-17T17:05:46.630Z,20.70
2019-02-17T17:08:17.495Z,20.67
2019-02-17T17:10:54.128Z,21.10
2019-02-17T17:13:26.679Z,22.17
2019-02-17T17:15:57.813Z,23.50
2019-02-17T17:18:27.987Z,22.17
2019-02-17T17:20:57.982Z,22.93
2019-02-17T17:23:34.099Z,23.03
2019-02-17T17:26:04.981Z,23.43
2019-02-17T17:28:37.516Z,22.67
2019-02-17T17:31:09.201Z,22.43
2019-02-17T17:33:39.550Z,23.67
2019-02-17T17:36:09.667Z,25.13
2019-02-17T17:38:40.404Z,26.73
2019-02-17T17:41:11.126Z,28.90
2019-02-17T17:43:41.449Z,27.97
2019-02-17T17:46:16.435Z,29.27
2019-02-17T17:48:50.577Z,29.70
2019-02-17T17:51:20.892Z,26.73
2019-02-17T17:53:52.181Z,27.43
2019-02-17T17:56:24.896Z,25.30
2019-02-17T17:58:56.145Z,25.40
2019-02-17T18:01:26.604Z,25.47
2019-02-17T18:03:56.904Z,28.42
2019-02-17T18:06:27.314Z,26.47
2019-02-17T18:08:58.128Z,25.57
2019-02-17T18:11:28.425Z,26.10
2019-02-17T18:13:58.611Z,25.70
2019-02-17T18:16:29.047Z,26.93
2019-02-17T18:18:59.406Z,26.67
2019-02-17T18:21:29.764Z,26.80
2019-02-17T18:24:00.010Z,27.73
2019-02-17T18:26:30.363Z,28.53
2019-02-17T18:29:00.864Z,27.17
2019-02-17T18:31:32.063Z,29.13
2019-02-17T18:34:02.486Z,29.53
2019-02-17T18:36:32.651Z,31.27
2019-02-17T18:39:05.454Z,31.57
2019-02-17T18:41:35.908Z,30.07
2019-02-17T18:44:06.083Z,32.87
2019-02-17T18:46:36.696Z,30.70
2019-02-17T18:49:07.043Z,32.70
2019-02-17T18:51:37.163Z,36.63
2019-02-17T18:54:07.470Z,36.57
2019-02-17T18:56:37.723Z,38.57
2019-02-17T18:59:10.665Z,38.70
2019-02-17T19:01:39.731Z,40.07
2019-02-17T19:04:09.971Z,40.27
2019-02-17T19:06:40.342Z,38.70
2019-02-17T19:09:10.843Z,39.20
2019-02-17T19:11:41.181Z,40.23
2019-02-17T19:14:11.587Z,39.67
2019-02-17T19:16:42.023Z,39.30
2019-02-17T19:19:12.963Z,38.47
2019-02-17T19:21:43.464Z,39.10
2019-02-17T19:24:14.299Z,38.03
2019-02-17T19:26:45.343Z,37.07
2019-02-17T19:29:16.338Z,38.37
2019-02-17T19:31:49.298Z,35.63
2019-02-17T19:34:20.179Z,35.30
2019-02-17T19:36:51.698Z,35.30
2019-02-17T19:39:22.498Z,35.23
2019-02-17T19:41:53.057Z,34.70
2019-02-17T19:44:25.193Z,34.53
2019-02-17T19:46:55.778Z,36.97
2019-02-17T19:49:25.785Z,37.93
2019-02-17T19:51:56.425Z,36.60
2019-02-17T19:54:26.861Z,36.13
2019-02-17T19:56:57.206Z,38.03
2019-02-17T19:59:27.244Z,43.10
2019-02-17T20:01:57.219Z,42.53
2019-02-17T20:04:31.660Z,44.07
2019-02-17T20:07:01.699Z,44.37
2019-02-17T20:09:31.691Z,42.70
2019-02-17T20:12:01.673Z,42.93
2019-02-17T20:14:31.818Z,44.73
2019-02-17T20:17:02.251Z,42.93
2019-02-17T20:19:32.285Z,42.90
2019-02-17T20:22:02.423Z,44.70
2019-02-17T20:24:32.573Z,44.63
2019-02-17T20:27:02.152Z,43.83
2019-02-17T20:29:31.603Z,43.47
2019-02-17T20:32:01.121Z,46.00
2019-02-17T20:34:31.351Z,46.77
2019-02-17T20:37:02.169Z,45.17
2019-02-17T20:39:31.900Z,45.37
2019-02-17T20:42:01.914Z,43.97
2019-02-17T20:44:31.552Z,46.00
2019-02-17T20:47:02.231Z,44.70
2019-02-17T20:49:31.841Z,45.13
2019-02-17T20:52:01.779Z,43.73
2019-02-17T20:54:32.452Z,45.00
2019-02-17T20:57:02.800Z,43.87
2019-02-17T20:59:33.851Z,44.77
2019-02-17T21:02:04.268Z,42.37
2019-02-17T21:04:34.300Z,45.77
2019-02-17T21:07:04.716Z,45.60
2019-02-17T21:09:35.952Z,44.70
2019-02-17T21:12:06.088Z,51.83
2019-02-17T21:14:36.654Z,54.85
2019-02-17T21:17:06.626Z,44.83
2019-02-17T21:19:37.114Z,44.13
2019-02-17T21:22:08.270Z,44.23
2019-02-17T21:24:38.477Z,43.67
2019-02-17T21:27:08.750Z,41.87
2019-02-17T21:29:39.066Z,42.73
2019-02-17T21:32:09.198Z,41.23
2019-02-17T21:34:39.736Z,41.60
2019-02-17T21:37:09.831Z,40.10
2019-02-17T21:39:40.152Z,40.83
2019-02-17T21:42:10.391Z,43.07
2019-02-17T21:44:40.936Z,40.63
2019-02-17T21:47:11.780Z,39.87
2019-02-17T21:49:42.094Z,40.13
2019-02-17T21:52:12.270Z,42.13
2019-02-17T21:54:42.301Z,41.50
2019-02-17T21:57:12.495Z,39.53
2019-02-17T21:59:42.873Z,38.40
2019-02-17T22:02:12.954Z,39.50
2019-02-17T22:04:43.115Z,37.07
2019-02-17T22:07:13.095Z,36.57
2019-02-17T22:09:42.773Z,37.10
2019-02-17T22:12:12.992Z,38.60
2019-02-17T22:14:43.305Z,36.23
2019-02-17T22:17:13.901Z,38.17
2019-02-17T22:19:44.213Z,35.20
2019-02-17T22:22:14.521Z,37.03
2019-02-17T22:24:44.873Z,36.30
2019-02-17T22:27:15.440Z,34.97
2019-02-17T22:29:45.825Z,35.87
2019-02-17T22:32:16.334Z,35.83
2019-02-17T22:34:46.554Z,35.50
2019-02-17T22:37:16.493Z,33.43
2019-02-17T22:39:49.415Z,34.73
2019-02-17T22:42:19.861Z,35.87
2019-02-17T22:44:50.096Z,35.70
2019-02-17T22:47:20.312Z,34.67
2019-02-17T22:49:50.469Z,37.63
2019-02-17T22:52:22.187Z,37.97
2019-02-17T22:54:53.473Z,41.00
2019-02-17T22:57:23.852Z,46.43
2019-02-17T22:59:53.873Z,48.83
2019-02-17T23:02:24.592Z,46.67
2019-02-17T23:04:54.932Z,46.57
2019-02-17T23:07:25.073Z,47.47
2019-02-17T23:09:55.233Z,47.50
2019-02-17T23:12:25.732Z,48.07
2019-02-17T23:14:55.895Z,46.97
2019-02-17T23:17:26.140Z,47.00
2019-02-17T23:19:56.040Z,45.97
2019-02-17T23:22:26.594Z,45.80
2019-02-17T23:24:56.734Z,44.57
2019-02-17T23:27:26.983Z,46.33
2019-02-17T23:29:57.281Z,46.33
2019-02-17T23:32:27.532Z,45.63
2019-02-17T23:34:57.686Z,47.20
2019-02-17T23:37:28.014Z,45.60
2019-02-17T23:39:59.821Z,45.07
2019-02-17T23:42:30.175Z,45.00
2019-02-17T23:45:00.393Z,44.30
2019-02-17T23:47:30.633Z,44.17
2019-02-17T23:50:00.724Z,44.00
2019-02-17T23:52:30.913Z,42.57
2019-02-17T23:55:01.055Z,44.00
2019-02-17T23:57:31.172Z,45.80
